EGNO

Warton Airport

Warton, United Kingdom
METAR EGNO 161150Z 18009KT 9999 BKN021 15/13 Q1012
Observed Flight Rules
Oct-16 @ 11:50 UTC (23 minutes ago) Marginal Visual Flight Rules
Wind Visibility Clouds
180° at 9 knots 10,000+ meters
  • Broken at 2,100' AGL
Temperatures Readings
Current 15°C / 59°F
Dewpoint 13°C / 55°F
Humidity 88%
Altimeter 29.88" Hg
Pressure 1012 hPa
Elevation 17
METAR EGNO 161150Z 18009KT 9999 BKN021 15/13 Q1012
Observed Flight Rules
Oct-16 @ 11:50 UTC
(23 minutes ago)
MVFR
Wind Visibility
180° at 9 knots 10,000+ meters
Clouds
  • Broken at 2,100' AGL
Temperature Dewpoint
15°C / 59°F 13°C / 55°F
Humidity Altimeter Pressure
88% 29.88" Hg 1012 hPa